Preview of NWS' New Version of Forecast
This preview is not operational and should not be used for support decisions.

Terminal Aerodrome Forecast (TAF)

Issued by National Weather Service (NWS)

                            
149 
FTUS42 KMFL 251453 AAA
TAFMIA
TAF AMD
KMIA 251453Z 2515/2618 12010KT P6SM VCSH SCT020 BKN030 BKN150
     FM251600 13012KT P6SM VCSH SCT020 BKN040 BKN100
      TEMPO 2517/2521 4SM SHRA BKN025
     FM260400 11007KT P6SM VCSH FEW015 SCT030 BKN120
     FM260800 11005KT P6SM SHRA OVC035
     FM261400 12011KT P6SM SHRA VCTS OVC025CB=